sensor_id;sensor_type;location;lat;lon;timestamp;temperature;humidity
7648;DHT22;3866;48.020;11.720;2023-07-13T00:01:05;16.70;99.90
7648;DHT22;3866;48.020;11.720;2023-07-13T00:03:32;16.70;99.90
7648;DHT22;3866;48.020;11.720;2023-07-13T00:06:02;16.80;99.90
7648;DHT22;3866;48.020;11.720;2023-07-13T00:08:31;16.80;99.90
7648;DHT22;3866;48.020;11.720;2023-07-13T00:10:59;16.90;99.90
7648;DHT22;3866;48.020;11.720;2023-07-13T00:13:26;16.80;99.90
7648;DHT22;3866;48.020;11.720;2023-07-13T00:15:53;16.80;99.90
7648;DHT22;3866;48.020;11.720;2023-07-13T00:18:20;16.70;99.90
7648;DHT22;3866;48.020;11.720;2023-07-13T00:20:47;16.80;99.90
7648;DHT22;3866;48.020;11.720;2023-07-13T00:23:15;16.90;99.90
7648;DHT22;3866;48.020;11.720;2023-07-13T00:25:44;16.70;99.90
7648;DHT22;3866;48.020;11.720;2023-07-13T00:28:11;16.80;99.90
7648;DHT22;3866;48.020;11.720;2023-07-13T00:30:38;16.80;99.90
7648;DHT22;3866;48.020;11.720;2023-07-13T00:33:05;16.80;99.90
7648;DHT22;3866;48.020;11.720;2023-07-13T00:35:34;16.80;99.90
7648;DHT22;3866;48.020;11.720;2023-07-13T00:38:01;16.90;99.90
7648;DHT22;3866;48.020;11.720;2023-07-13T00:40:29;16.90;99.90
7648;DHT22;3866;48.020;11.720;2023-07-13T00:42:57;17.00;99.90
7648;DHT22;3866;48.020;11.720;2023-07-13T00:48:34;17.00;99.90
7648;DHT22;3866;48.020;11.720;2023-07-13T00:51:02;16.90;99.90
7648;DHT22;3866;48.020;11.720;2023-07-13T00:53:31;16.90;99.90
7648;DHT22;3866;48.020;11.720;2023-07-13T00:56:00;16.80;99.90
7648;DHT22;3866;48.020;11.720;2023-07-13T00:58:28;16.90;99.90
7648;DHT22;3866;48.020;11.720;2023-07-13T01:00:55;16.90;99.90
7648;DHT22;3866;48.020;11.720;2023-07-13T01:03:22;16.90;99.90
7648;DHT22;3866;48.020;11.720;2023-07-13T01:05:49;16.90;99.90
7648;DHT22;3866;48.020;11.720;2023-07-13T01:08:17;16.90;99.90
7648;DHT22;3866;48.020;11.720;2023-07-13T01:10:51;16.90;99.90
7648;DHT22;3866;48.020;11.720;2023-07-13T01:13:20;16.90;99.90
7648;DHT22;3866;48.020;11.720;2023-07-13T01:15:49;16.80;99.90
7648;DHT22;3866;48.020;11.720;2023-07-13T01:18:18;16.80;99.90
7648;DHT22;3866;48.020;11.720;2023-07-13T01:20:51;16.70;99.90
7648;DHT22;3866;48.020;11.720;2023-07-13T01:23:18;16.80;99.90
7648;DHT22;3866;48.020;11.720;2023-07-13T01:25:46;16.90;99.90
7648;DHT22;3866;48.020;11.720;2023-07-13T01:28:14;16.90;99.90
7648;DHT22;3866;48.020;11.720;2023-07-13T01:30:43;16.90;99.90
7648;DHT22;3866;48.020;11.720;2023-07-13T01:33:12;16.90;99.90
7648;DHT22;3866;48.020;11.720;2023-07-13T01:35:39;17.00;99.90
7648;DHT22;3866;48.020;11.720;2023-07-13T01:38:08;16.90;99.90
7648;DHT22;3866;48.020;11.720;2023-07-13T01:40:36;16.80;99.90
7648;DHT22;3866;48.020;11.720;2023-07-13T01:43:04;16.80;99.90
7648;DHT22;3866;48.020;11.720;2023-07-13T01:45:31;16.80;99.90
7648;DHT22;3866;48.020;11.720;2023-07-13T01:47:58;16.80;99.90
7648;DHT22;3866;48.020;11.720;2023-07-13T01:50:25;16.90;99.90
7648;DHT22;3866;48.020;11.720;2023-07-13T01:52:52;16.70;99.90
7648;DHT22;3866;48.020;11.720;2023-07-13T01:55:20;16.90;99.90
7648;DHT22;3866;48.020;11.720;2023-07-13T01:57:48;16.80;99.90
7648;DHT22;3866;48.020;11.720;2023-07-13T02:00:15;16.70;99.90
7648;DHT22;3866;48.020;11.720;2023-07-13T02:02:42;16.70;99.90
7648;DHT22;3866;48.020;11.720;2023-07-13T02:05:09;16.70;99.90
7648;DHT22;3866;48.020;11.720;2023-07-13T02:07:37;16.80;99.90
7648;DHT22;3866;48.020;11.720;2023-07-13T02:10:04;16.70;99.90
7648;DHT22;3866;48.020;11.720;2023-07-13T02:12:33;16.70;99.90
7648;DHT22;3866;48.020;11.720;2023-07-13T02:15:00;16.70;99.90
7648;DHT22;3866;48.020;11.720;2023-07-13T02:17:26;16.80;99.90
7648;DHT22;3866;48.020;11.720;2023-07-13T02:19:53;16.80;99.90
7648;DHT22;3866;48.020;11.720;2023-07-13T02:22:21;16.70;99.90
7648;DHT22;3866;48.020;11.720;2023-07-13T02:24:48;16.70;99.90
7648;DHT22;3866;48.020;11.720;2023-07-13T02:27:15;16.70;99.90
7648;DHT22;3866;48.020;11.720;2023-07-13T02:29:44;16.70;99.90
7648;DHT22;3866;48.020;11.720;2023-07-13T02:32:10;16.60;99.90
7648;DHT22;3866;48.020;11.720;2023-07-13T02:34:37;16.70;99.90
7648;DHT22;3866;48.020;11.720;2023-07-13T02:37:04;16.60;99.90
7648;DHT22;3866;48.020;11.720;2023-07-13T02:39:31;16.60;99.90
7648;DHT22;3866;48.020;11.720;2023-07-13T02:41:59;16.60;99.90
7648;DHT22;3866;48.020;11.720;2023-07-13T02:44:26;16.60;99.90
7648;DHT22;3866;48.020;11.720;2023-07-13T02:46:54;16.60;99.90
7648;DHT22;3866;48.020;11.720;2023-07-13T02:49:21;16.80;99.90
7648;DHT22;3866;48.020;11.720;2023-07-13T02:51:48;16.70;99.90
7648;DHT22;3866;48.020;11.720;2023-07-13T02:54:15;16.70;99.90
7648;DHT22;3866;48.020;11.720;2023-07-13T02:56:42;16.60;99.90
7648;DHT22;3866;48.020;11.720;2023-07-13T02:59:09;16.70;99.90
7648;DHT22;3866;48.020;11.720;2023-07-13T03:01:36;16.60;99.90
7648;DHT22;3866;48.020;11.720;2023-07-13T03:04:05;16.70;99.90
7648;DHT22;3866;48.020;11.720;2023-07-13T03:06:32;16.70;99.90
7648;DHT22;3866;48.020;11.720;2023-07-13T03:08:59;16.70;99.90
7648;DHT22;3866;48.020;11.720;2023-07-13T03:11:26;16.70;99.90
7648;DHT22;3866;48.020;11.720;2023-07-13T03:13:53;16.80;99.90
7648;DHT22;3866;48.020;11.720;2023-07-13T03:16:20;16.80;99.90
7648;DHT22;3866;48.020;11.720;2023-07-13T03:18:48;16.80;99.90
7648;DHT22;3866;48.020;11.720;2023-07-13T03:21:16;16.80;99.90
7648;DHT22;3866;48.020;11.720;2023-07-13T03:23:43;16.70;99.90
7648;DHT22;3866;48.020;11.720;2023-07-13T03:26:12;16.80;99.90
7648;DHT22;3866;48.020;11.720;2023-07-13T03:28:39;16.70;99.90
7648;DHT22;3866;48.020;11.720;2023-07-13T03:31:08;16.60;99.90
7648;DHT22;3866;48.020;11.720;2023-07-13T03:33:35;16.70;99.90
7648;DHT22;3866;48.020;11.720;2023-07-13T03:36:04;16.60;99.90
7648;DHT22;3866;48.020;11.720;2023-07-13T03:38:32;16.60;99.90
7648;DHT22;3866;48.020;11.720;2023-07-13T03:40:59;16.50;99.90
7648;DHT22;3866;48.020;11.720;2023-07-13T03:43:26;16.40;99.90
7648;DHT22;3866;48.020;11.720;2023-07-13T03:45:53;16.50;99.90
7648;DHT22;3866;48.020;11.720;2023-07-13T03:48:20;16.40;99.90
7648;DHT22;3866;48.020;11.720;2023-07-13T03:50:47;16.40;99.90
7648;DHT22;3866;48.020;11.720;2023-07-13T03:53:15;16.40;99.90
7648;DHT22;3866;48.020;11.720;2023-07-13T03:55:44;16.10;99.90
7648;DHT22;3866;48.020;11.720;2023-07-13T03:58:26;16.00;99.90
7648;DHT22;3866;48.020;11.720;2023-07-13T04:00:53;16.00;99.90
7648;DHT22;3866;48.020;11.720;2023-07-13T04:03:21;16.00;99.90
7648;DHT22;3866;48.020;11.720;2023-07-13T04:05:48;15.90;99.90
7648;DHT22;3866;48.020;11.720;2023-07-13T04:08:15;15.80;99.90
7648;DHT22;3866;48.020;11.720;2023-07-13T04:10:43;15.80;99.90
7648;DHT22;3866;48.020;11.720;2023-07-13T04:13:10;15.90;99.90
7648;DHT22;3866;48.020;11.720;2023-07-13T04:15:37;15.90;99.90
7648;DHT22;3866;48.020;11.720;2023-07-13T04:18:05;15.90;99.90
7648;DHT22;3866;48.020;11.720;2023-07-13T04:20:32;15.90;99.90
7648;DHT22;3866;48.020;11.720;2023-07-13T04:22:59;15.70;99.90
7648;DHT22;3866;48.020;11.720;2023-07-13T04:25:26;15.70;99.90
7648;DHT22;3866;48.020;11.720;2023-07-13T04:27:54;15.70;99.90
7648;DHT22;3866;48.020;11.720;2023-07-13T04:30:22;15.60;99.90
7648;DHT22;3866;48.020;11.720;2023-07-13T04:32:50;15.60;99.90
7648;DHT22;3866;48.020;11.720;2023-07-13T04:35:18;15.70;99.90
7648;DHT22;3866;48.020;11.720;2023-07-13T04:37:46;15.80;99.90
7648;DHT22;3866;48.020;11.720;2023-07-13T04:40:14;15.90;99.90
7648;DHT22;3866;48.020;11.720;2023-07-13T04:42:41;15.70;99.90
7648;DHT22;3866;48.020;11.720;2023-07-13T04:45:09;15.70;99.90
7648;DHT22;3866;48.020;11.720;2023-07-13T04:47:36;15.50;99.90
7648;DHT22;3866;48.020;11.720;2023-07-13T04:50:04;15.50;99.90
7648;DHT22;3866;48.020;11.720;2023-07-13T04:52:31;15.40;99.90
7648;DHT22;3866;48.020;11.720;2023-07-13T04:54:58;15.30;99.90
7648;DHT22;3866;48.020;11.720;2023-07-13T04:57:26;15.20;99.90
7648;DHT22;3866;48.020;11.720;2023-07-13T04:59:52;15.30;99.90
7648;DHT22;3866;48.020;11.720;2023-07-13T05:02:21;15.50;99.90
7648;DHT22;3866;48.020;11.720;2023-07-13T05:04:49;15.40;99.90
7648;DHT22;3866;48.020;11.720;2023-07-13T05:07:16;15.40;99.90
7648;DHT22;3866;48.020;11.720;2023-07-13T05:09:42;15.40;99.90
7648;DHT22;3866;48.020;11.720;2023-07-13T05:12:10;15.40;99.90
7648;DHT22;3866;48.020;11.720;2023-07-13T05:14:37;15.40;99.90
7648;DHT22;3866;48.020;11.720;2023-07-13T05:17:04;15.50;99.90
7648;DHT22;3866;48.020;11.720;2023-07-13T05:19:32;15.60;99.90
7648;DHT22;3866;48.020;11.720;2023-07-13T05:21:59;15.60;99.90
7648;DHT22;3866;48.020;11.720;2023-07-13T05:24:26;15.90;99.90
7648;DHT22;3866;48.020;11.720;2023-07-13T05:26:53;15.80;99.90
7648;DHT22;3866;48.020;11.720;2023-07-13T05:29:20;15.70;99.90
7648;DHT22;3866;48.020;11.720;2023-07-13T05:31:47;15.80;99.90
7648;DHT22;3866;48.020;11.720;2023-07-13T05:34:14;15.90;99.90
7648;DHT22;3866;48.020;11.720;2023-07-13T05:36:42;15.90;99.90
7648;DHT22;3866;48.020;11.720;2023-07-13T05:39:09;15.90;99.90
7648;DHT22;3866;48.020;11.720;2023-07-13T05:41:37;15.90;99.90
7648;DHT22;3866;48.020;11.720;2023-07-13T05:44:04;15.90;99.90
7648;DHT22;3866;48.020;11.720;2023-07-13T05:46:30;15.90;99.90
7648;DHT22;3866;48.020;11.720;2023-07-13T05:48:57;16.00;99.90
7648;DHT22;3866;48.020;11.720;2023-07-13T05:51:24;15.90;99.90
7648;DHT22;3866;48.020;11.720;2023-07-13T05:53:52;16.00;99.90
7648;DHT22;3866;48.020;11.720;2023-07-13T05:56:19;15.90;99.90
7648;DHT22;3866;48.020;11.720;2023-07-13T05:58:47;15.90;99.90
7648;DHT22;3866;48.020;11.720;2023-07-13T06:01:15;15.90;99.90
7648;DHT22;3866;48.020;11.720;2023-07-13T06:03:42;16.00;99.90
7648;DHT22;3866;48.020;11.720;2023-07-13T06:06:10;16.00;99.90
7648;DHT22;3866;48.020;11.720;2023-07-13T06:08:37;16.10;99.90
7648;DHT22;3866;48.020;11.720;2023-07-13T06:11:07;16.20;99.90
7648;DHT22;3866;48.020;11.720;2023-07-13T06:13:35;16.30;99.90
7648;DHT22;3866;48.020;11.720;2023-07-13T06:16:02;16.30;99.90
7648;DHT22;3866;48.020;11.720;2023-07-13T06:18:31;16.40;99.90
7648;DHT22;3866;48.020;11.720;2023-07-13T06:20:58;16.60;99.90
7648;DHT22;3866;48.020;11.720;2023-07-13T06:23:25;16.60;99.90
7648;DHT22;3866;48.020;11.720;2023-07-13T06:25:52;16.70;99.90
7648;DHT22;3866;48.020;11.720;2023-07-13T06:28:20;16.60;99.90
7648;DHT22;3866;48.020;11.720;2023-07-13T06:30:47;16.60;99.90
7648;DHT22;3866;48.020;11.720;2023-07-13T06:33:14;16.60;99.90
7648;DHT22;3866;48.020;11.720;2023-07-13T06:35:41;16.70;99.90
7648;DHT22;3866;48.020;11.720;2023-07-13T06:38:08;16.70;99.90
7648;DHT22;3866;48.020;11.720;2023-07-13T06:40:34;16.70;99.90
7648;DHT22;3866;48.020;11.720;2023-07-13T06:43:01;16.70;99.90
7648;DHT22;3866;48.020;11.720;2023-07-13T06:45:29;16.70;99.90
7648;DHT22;3866;48.020;11.720;2023-07-13T06:47:56;16.70;99.90
7648;DHT22;3866;48.020;11.720;2023-07-13T06:50:23;16.70;99.90
7648;DHT22;3866;48.020;11.720;2023-07-13T06:52:50;16.70;99.90
7648;DHT22;3866;48.020;11.720;2023-07-13T06:55:18;16.70;99.90
7648;DHT22;3866;48.020;11.720;2023-07-13T06:57:45;16.80;99.90
7648;DHT22;3866;48.020;11.720;2023-07-13T07:00:13;16.80;99.90
7648;DHT22;3866;48.020;11.720;2023-07-13T07:02:41;16.80;99.90
7648;DHT22;3866;48.020;11.720;2023-07-13T07:05:08;16.80;99.90
7648;DHT22;3866;48.020;11.720;2023-07-13T07:07:35;16.80;99.90
7648;DHT22;3866;48.020;11.720;2023-07-13T07:10:02;16.80;99.90
7648;DHT22;3866;48.020;11.720;2023-07-13T07:12:29;16.80;99.90
7648;DHT22;3866;48.020;11.720;2023-07-13T07:14:58;16.90;99.90
7648;DHT22;3866;48.020;11.720;2023-07-13T07:17:24;16.90;99.90
7648;DHT22;3866;48.020;11.720;2023-07-13T07:19:53;16.90;99.90
7648;DHT22;3866;48.020;11.720;2023-07-13T07:22:20;16.90;99.90
7648;DHT22;3866;48.020;11.720;2023-07-13T07:24:47;16.90;99.90
7648;DHT22;3866;48.020;11.720;2023-07-13T07:27:14;16.90;99.90
7648;DHT22;3866;48.020;11.720;2023-07-13T07:29:40;17.00;99.90
7648;DHT22;3866;48.020;11.720;2023-07-13T07:32:08;17.00;99.90
7648;DHT22;3866;48.020;11.720;2023-07-13T07:34:35;17.10;99.90
7648;DHT22;3866;48.020;11.720;2023-07-13T07:37:03;17.00;99.90
7648;DHT22;3866;48.020;11.720;2023-07-13T07:39:30;17.00;99.90
7648;DHT22;3866;48.020;11.720;2023-07-13T07:41:57;17.00;99.90
7648;DHT22;3866;48.020;11.720;2023-07-13T07:44:24;17.10;99.90
7648;DHT22;3866;48.020;11.720;2023-07-13T07:46:52;17.20;99.90
7648;DHT22;3866;48.020;11.720;2023-07-13T07:49:19;17.20;99.90
7648;DHT22;3866;48.020;11.720;2023-07-13T07:51:46;17.10;99.90
7648;DHT22;3866;48.020;11.720;2023-07-13T07:54:15;17.10;99.90
7648;DHT22;3866;48.020;11.720;2023-07-13T07:56:42;17.00;99.90
7648;DHT22;3866;48.020;11.720;2023-07-13T07:59:09;17.00;99.90
7648;DHT22;3866;48.020;11.720;2023-07-13T08:01:36;17.00;99.90
7648;DHT22;3866;48.020;11.720;2023-07-13T08:04:03;17.10;99.90
7648;DHT22;3866;48.020;11.720;2023-07-13T08:06:31;17.10;99.90
7648;DHT22;3866;48.020;11.720;2023-07-13T08:08:59;17.10;99.90
7648;DHT22;3866;48.020;11.720;2023-07-13T08:11:27;17.10;99.90
7648;DHT22;3866;48.020;11.720;2023-07-13T08:13:54;17.10;99.90
7648;DHT22;3866;48.020;11.720;2023-07-13T08:16:21;17.20;99.90
7648;DHT22;3866;48.020;11.720;2023-07-13T08:18:48;17.10;99.90
7648;DHT22;3866;48.020;11.720;2023-07-13T08:21:15;17.10;99.90
7648;DHT22;3866;48.020;11.720;2023-07-13T08:23:42;17.10;99.90
7648;DHT22;3866;48.020;11.720;2023-07-13T08:26:09;16.90;99.90
7648;DHT22;3866;48.020;11.720;2023-07-13T08:28:37;16.80;99.90
7648;DHT22;3866;48.020;11.720;2023-07-13T08:31:06;16.80;99.90
7648;DHT22;3866;48.020;11.720;2023-07-13T08:33:34;16.80;99.90
7648;DHT22;3866;48.020;11.720;2023-07-13T08:36:04;16.80;99.90
7648;DHT22;3866;48.020;11.720;2023-07-13T08:38:31;16.80;99.90
7648;DHT22;3866;48.020;11.720;2023-07-13T08:40:58;16.70;99.90
7648;DHT22;3866;48.020;11.720;2023-07-13T08:43:27;16.70;99.90
7648;DHT22;3866;48.020;11.720;2023-07-13T08:46:01;16.60;99.90
7648;DHT22;3866;48.020;11.720;2023-07-13T08:48:32;16.70;99.90
7648;DHT22;3866;48.020;11.720;2023-07-13T08:51:04;16.60;99.90
7648;DHT22;3866;48.020;11.720;2023-07-13T08:53:38;16.60;99.90
7648;DHT22;3866;48.020;11.720;2023-07-13T08:56:11;16.70;99.90
7648;DHT22;3866;48.020;11.720;2023-07-13T08:58:40;16.60;99.90
7648;DHT22;3866;48.020;11.720;2023-07-13T09:01:14;16.60;99.90
7648;DHT22;3866;48.020;11.720;2023-07-13T09:03:51;16.50;99.90
7648;DHT22;3866;48.020;11.720;2023-07-13T09:06:23;16.50;99.90
7648;DHT22;3866;48.020;11.720;2023-07-13T09:08:58;16.40;99.90
7648;DHT22;3866;48.020;11.720;2023-07-13T09:11:36;16.50;99.90
7648;DHT22;3866;48.020;11.720;2023-07-13T09:14:29;16.40;99.90
7648;DHT22;3866;48.020;11.720;2023-07-13T09:17:01;16.60;99.90
7648;DHT22;3866;48.020;11.720;2023-07-13T09:19:32;16.50;99.90
7648;DHT22;3866;48.020;11.720;2023-07-13T09:22:00;16.40;99.90
7648;DHT22;3866;48.020;11.720;2023-07-13T09:24:35;16.40;99.90
7648;DHT22;3866;48.020;11.720;2023-07-13T09:27:12;16.50;99.90
7648;DHT22;3866;48.020;11.720;2023-07-13T09:29:42;16.70;99.90
7648;DHT22;3866;48.020;11.720;2023-07-13T09:32:14;16.70;99.90
7648;DHT22;3866;48.020;11.720;2023-07-13T09:34:50;16.80;99.90
7648;DHT22;3866;48.020;11.720;2023-07-13T09:37:17;16.70;99.90
7648;DHT22;3866;48.020;11.720;2023-07-13T09:39:45;16.50;99.90
7648;DHT22;3866;48.020;11.720;2023-07-13T09:42:15;16.40;99.90
7648;DHT22;3866;48.020;11.720;2023-07-13T09:44:52;16.60;99.90
7648;DHT22;3866;48.020;11.720;2023-07-13T09:47:22;16.50;99.90
7648;DHT22;3866;48.020;11.720;2023-07-13T09:49:55;16.60;99.90
7648;DHT22;3866;48.020;11.720;2023-07-13T09:52:24;16.60;99.90
7648;DHT22;3866;48.020;11.720;2023-07-13T09:54:54;16.60;99.90
7648;DHT22;3866;48.020;11.720;2023-07-13T09:57:25;16.60;99.90
7648;DHT22;3866;48.020;11.720;2023-07-13T09:59:54;16.70;99.90
7648;DHT22;3866;48.020;11.720;2023-07-13T10:02:30;16.60;99.90
7648;DHT22;3866;48.020;11.720;2023-07-13T10:05:00;16.60;99.90
7648;DHT22;3866;48.020;11.720;2023-07-13T10:07:29;16.60;99.90
7648;DHT22;3866;48.020;11.720;2023-07-13T10:09:56;16.60;99.90
7648;DHT22;3866;48.020;11.720;2023-07-13T10:12:27;16.70;99.90
7648;DHT22;3866;48.020;11.720;2023-07-13T10:14:56;16.70;99.90
7648;DHT22;3866;48.020;11.720;2023-07-13T10:17:27;16.70;99.90
7648;DHT22;3866;48.020;11.720;2023-07-13T10:19:59;16.70;99.90
7648;DHT22;3866;48.020;11.720;2023-07-13T10:22:35;16.80;99.90
7648;DHT22;3866;48.020;11.720;2023-07-13T10:25:13;16.90;99.90
7648;DHT22;3866;48.020;11.720;2023-07-13T10:27:43;17.00;99.90
7648;DHT22;3866;48.020;11.720;2023-07-13T10:30:14;17.10;99.90
7648;DHT22;3866;48.020;11.720;2023-07-13T10:32:42;17.10;99.90
7648;DHT22;3866;48.020;11.720;2023-07-13T10:35:12;17.40;99.90
7648;DHT22;3866;48.020;11.720;2023-07-13T10:37:45;17.70;99.90
7648;DHT22;3866;48.020;11.720;2023-07-13T10:40:18;17.80;99.90
7648;DHT22;3866;48.020;11.720;2023-07-13T10:42:50;17.90;99.90
7648;DHT22;3866;48.020;11.720;2023-07-13T10:45:20;18.10;99.90
7648;DHT22;3866;48.020;11.720;2023-07-13T10:47:48;18.00;99.90
7648;DHT22;3866;48.020;11.720;2023-07-13T10:50:19;17.90;99.90
7648;DHT22;3866;48.020;11.720;2023-07-13T10:52:48;18.00;99.90
7648;DHT22;3866;48.020;11.720;2023-07-13T10:55:40;18.40;99.90
7648;DHT22;3866;48.020;11.720;2023-07-13T10:58:22;18.70;99.90
7648;DHT22;3866;48.020;11.720;2023-07-13T11:00:53;18.80;99.90
7648;DHT22;3866;48.020;11.720;2023-07-13T11:03:23;18.80;99.90
7648;DHT22;3866;48.020;11.720;2023-07-13T11:06:07;18.80;99.90
7648;DHT22;3866;48.020;11.720;2023-07-13T11:08:37;19.40;99.90
7648;DHT22;3866;48.020;11.720;2023-07-13T11:11:34;19.40;99.90
7648;DHT22;3866;48.020;11.720;2023-07-13T11:14:02;19.60;99.90
7648;DHT22;3866;48.020;11.720;2023-07-13T11:16:35;20.00;99.90
7648;DHT22;3866;48.020;11.720;2023-07-13T11:19:28;19.60;99.90
7648;DHT22;3866;48.020;11.720;2023-07-13T11:22:15;19.30;99.90
7648;DHT22;3866;48.020;11.720;2023-07-13T11:25:00;19.80;99.90
7648;DHT22;3866;48.020;11.720;2023-07-13T11:27:42;19.90;99.90
7648;DHT22;3866;48.020;11.720;2023-07-13T11:30:25;20.20;99.90
7648;DHT22;3866;48.020;11.720;2023-07-13T11:33:16;20.60;99.90
7648;DHT22;3866;48.020;11.720;2023-07-13T11:35:50;20.70;99.90
7648;DHT22;3866;48.020;11.720;2023-07-13T11:38:20;20.70;99.90
7648;DHT22;3866;48.020;11.720;2023-07-13T11:40:50;20.40;99.90
7648;DHT22;3866;48.020;11.720;2023-07-13T11:43:20;20.70;99.90
7648;DHT22;3866;48.020;11.720;2023-07-13T11:45:49;20.90;99.90
7648;DHT22;3866;48.020;11.720;2023-07-13T11:48:21;21.20;99.90
7648;DHT22;3866;48.020;11.720;2023-07-13T11:50:55;21.20;99.90
7648;DHT22;3866;48.020;11.720;2023-07-13T11:53:24;21.30;99.90
7648;DHT22;3866;48.020;11.720;2023-07-13T11:55:53;21.20;99.90
7648;DHT22;3866;48.020;11.720;2023-07-13T11:58:24;21.40;99.90
7648;DHT22;3866;48.020;11.720;2023-07-13T12:00:52;21.30;99.90
7648;DHT22;3866;48.020;11.720;2023-07-13T12:03:22;21.90;99.90
7648;DHT22;3866;48.020;11.720;2023-07-13T12:05:57;23.00;99.90
7648;DHT22;3866;48.020;11.720;2023-07-13T12:08:25;22.90;99.90
7648;DHT22;3866;48.020;11.720;2023-07-13T12:11:04;22.90;99.90
7648;DHT22;3866;48.020;11.720;2023-07-13T12:13:37;22.60;99.90
7648;DHT22;3866;48.020;11.720;2023-07-13T12:16:15;23.40;99.90
7648;DHT22;3866;48.020;11.720;2023-07-13T12:18:44;23.50;99.90
7648;DHT22;3866;48.020;11.720;2023-07-13T12:21:16;23.50;99.90
7648;DHT22;3866;48.020;11.720;2023-07-13T12:23:44;23.20;99.90
7648;DHT22;3866;48.020;11.720;2023-07-13T12:26:15;24.30;99.90
7648;DHT22;3866;48.020;11.720;2023-07-13T12:28:47;23.90;99.90
7648;DHT22;3866;48.020;11.720;2023-07-13T12:31:30;23.90;99.90
7648;DHT22;3866;48.020;11.720;2023-07-13T12:34:00;23.30;99.90
7648;DHT22;3866;48.020;11.720;2023-07-13T12:36:31;23.60;99.90
7648;DHT22;3866;48.020;11.720;2023-07-13T12:39:02;23.40;99.90
7648;DHT22;3866;48.020;11.720;2023-07-13T12:41:31;24.30;99.90
7648;DHT22;3866;48.020;11.720;2023-07-13T12:44:00;24.10;99.90
7648;DHT22;3866;48.020;11.720;2023-07-13T12:46:27;23.20;99.90
7648;DHT22;3866;48.020;11.720;2023-07-13T12:48:57;23.20;99.90
7648;DHT22;3866;48.020;11.720;2023-07-13T12:51:26;23.00;99.90
7648;DHT22;3866;48.020;11.720;2023-07-13T12:54:04;24.00;99.90
7648;DHT22;3866;48.020;11.720;2023-07-13T12:56:32;24.20;99.90
7648;DHT22;3866;48.020;11.720;2023-07-13T12:59:03;24.50;99.90
7648;DHT22;3866;48.020;11.720;2023-07-13T13:01:33;23.90;99.90
7648;DHT22;3866;48.020;11.720;2023-07-13T13:04:03;23.70;99.90
7648;DHT22;3866;48.020;11.720;2023-07-13T13:06:32;23.40;99.90
7648;DHT22;3866;48.020;11.720;2023-07-13T13:09:01;23.70;99.90
7648;DHT22;3866;48.020;11.720;2023-07-13T13:11:30;24.20;99.90
7648;DHT22;3866;48.020;11.720;2023-07-13T13:13:57;24.30;99.90
7648;DHT22;3866;48.020;11.720;2023-07-13T13:16:30;24.40;99.90
7648;DHT22;3866;48.020;11.720;2023-07-13T13:19:05;23.50;99.90
7648;DHT22;3866;48.020;11.720;2023-07-13T13:21:36;23.10;99.90
7648;DHT22;3866;48.020;11.720;2023-07-13T13:24:08;23.80;99.90
7648;DHT22;3866;48.020;11.720;2023-07-13T13:26:36;24.80;99.90
7648;DHT22;3866;48.020;11.720;2023-07-13T13:29:12;24.50;99.90
7648;DHT22;3866;48.020;11.720;2023-07-13T13:31:41;24.70;99.90
7648;DHT22;3866;48.020;11.720;2023-07-13T13:34:10;24.50;99.90
7648;DHT22;3866;48.020;11.720;2023-07-13T13:36:37;25.10;99.90
7648;DHT22;3866;48.020;11.720;2023-07-13T13:39:16;25.20;99.90
7648;DHT22;3866;48.020;11.720;2023-07-13T13:41:45;24.40;99.90
7648;DHT22;3866;48.020;11.720;2023-07-13T13:44:14;24.30;99.90
7648;DHT22;3866;48.020;11.720;2023-07-13T13:46:44;23.70;99.90
7648;DHT22;3866;48.020;11.720;2023-07-13T13:49:14;23.60;99.90
7648;DHT22;3866;48.020;11.720;2023-07-13T13:51:42;23.90;99.90
7648;DHT22;3866;48.020;11.720;2023-07-13T13:54:12;23.10;99.90
7648;DHT22;3866;48.020;11.720;2023-07-13T13:56:40;22.60;99.90
7648;DHT22;3866;48.020;11.720;2023-07-13T13:59:07;22.60;99.90
7648;DHT22;3866;48.020;11.720;2023-07-13T14:01:35;22.70;99.90
7648;DHT22;3866;48.020;11.720;2023-07-13T14:04:04;22.50;99.90
7648;DHT22;3866;48.020;11.720;2023-07-13T14:06:32;22.10;99.90
7648;DHT22;3866;48.020;11.720;2023-07-13T14:08:59;22.30;99.90
7648;DHT22;3866;48.020;11.720;2023-07-13T14:11:26;22.10;99.90
7648;DHT22;3866;48.020;11.720;2023-07-13T14:13:56;22.10;99.90
7648;DHT22;3866;48.020;11.720;2023-07-13T14:16:27;22.00;99.90
7648;DHT22;3866;48.020;11.720;2023-07-13T14:18:55;22.00;99.90
7648;DHT22;3866;48.020;11.720;2023-07-13T14:21:28;22.00;99.90
7648;DHT22;3866;48.020;11.720;2023-07-13T14:23:55;21.80;99.90
7648;DHT22;3866;48.020;11.720;2023-07-13T14:26:25;21.90;99.90
7648;DHT22;3866;48.020;11.720;2023-07-13T14:28:54;22.10;99.90
7648;DHT22;3866;48.020;11.720;2023-07-13T14:31:22;22.40;99.90
7648;DHT22;3866;48.020;11.720;2023-07-13T14:33:49;22.30;99.90
7648;DHT22;3866;48.020;11.720;2023-07-13T14:36:26;22.00;99.90
7648;DHT22;3866;48.020;11.720;2023-07-13T14:38:55;22.20;99.90
7648;DHT22;3866;48.020;11.720;2023-07-13T14:41:22;22.10;99.90
7648;DHT22;3866;48.020;11.720;2023-07-13T14:43:49;22.00;99.90
7648;DHT22;3866;48.020;11.720;2023-07-13T14:46:24;22.00;99.90
7648;DHT22;3866;48.020;11.720;2023-07-13T14:48:54;22.30;99.90
7648;DHT22;3866;48.020;11.720;2023-07-13T14:51:26;22.20;99.90
7648;DHT22;3866;48.020;11.720;2023-07-13T14:53:53;22.70;99.90
7648;DHT22;3866;48.020;11.720;2023-07-13T14:56:19;23.00;99.90
7648;DHT22;3866;48.020;11.720;2023-07-13T14:58:46;22.90;99.90
7648;DHT22;3866;48.020;11.720;2023-07-13T15:01:14;23.10;99.90
7648;DHT22;3866;48.020;11.720;2023-07-13T15:03:44;23.10;99.90
7648;DHT22;3866;48.020;11.720;2023-07-13T15:06:13;23.00;99.90
7648;DHT22;3866;48.020;11.720;2023-07-13T15:08:41;22.60;99.90
7648;DHT22;3866;48.020;11.720;2023-07-13T15:11:08;23.00;99.90
7648;DHT22;3866;48.020;11.720;2023-07-13T15:13:37;23.00;99.90
7648;DHT22;3866;48.020;11.720;2023-07-13T15:16:08;22.90;99.90
7648;DHT22;3866;48.020;11.720;2023-07-13T15:18:39;22.90;99.90
7648;DHT22;3866;48.020;11.720;2023-07-13T15:21:08;22.70;99.90
7648;DHT22;3866;48.020;11.720;2023-07-13T15:23:40;22.90;99.90
7648;DHT22;3866;48.020;11.720;2023-07-13T15:26:11;22.70;99.90
7648;DHT22;3866;48.020;11.720;2023-07-13T15:28:38;22.50;99.90
7648;DHT22;3866;48.020;11.720;2023-07-13T15:31:17;22.50;99.90
7648;DHT22;3866;48.020;11.720;2023-07-13T15:33:44;22.70;99.90
7648;DHT22;3866;48.020;11.720;2023-07-13T15:36:13;22.80;99.90
7648;DHT22;3866;48.020;11.720;2023-07-13T15:38:42;23.00;99.90
7648;DHT22;3866;48.020;11.720;2023-07-13T15:41:17;22.90;99.90
7648;DHT22;3866;48.020;11.720;2023-07-13T15:43:45;22.70;99.90
7648;DHT22;3866;48.020;11.720;2023-07-13T15:46:13;22.90;99.90
7648;DHT22;3866;48.020;11.720;2023-07-13T15:48:40;23.00;99.90
7648;DHT22;3866;48.020;11.720;2023-07-13T15:51:18;23.00;99.90
7648;DHT22;3866;48.020;11.720;2023-07-13T15:53:47;22.60;99.90
7648;DHT22;3866;48.020;11.720;2023-07-13T15:56:20;22.40;99.90
7648;DHT22;3866;48.020;11.720;2023-07-13T15:58:48;22.70;99.90
7648;DHT22;3866;48.020;11.720;2023-07-13T16:01:15;22.80;99.90